sensor_id;sensor_type;location;lat;lon;timestamp;pressure;altitude;pressure_sealevel;temperature;humidity
62946;BME280;52164;52.212;-1.010;2023-04-19T00:00:27;101814.42;;;9.29;65.80
62946;BME280;52164;52.212;-1.010;2023-04-19T00:02:53;101813.39;;;9.30;65.72
62946;BME280;52164;52.212;-1.010;2023-04-19T00:05:19;101812.84;;;9.30;65.88
62946;BME280;52164;52.212;-1.010;2023-04-19T00:07:46;101814.83;;;9.30;66.08
62946;BME280;52164;52.212;-1.010;2023-04-19T00:10:14;101813.39;;;9.30;65.77
62946;BME280;52164;52.212;-1.010;2023-04-19T00:12:39;101811.58;;;9.29;66.03
62946;BME280;52164;52.212;-1.010;2023-04-19T00:15:05;101815.50;;;9.29;65.78
62946;BME280;52164;52.212;-1.010;2023-04-19T00:17:30;101809.27;;;9.30;65.96
62946;BME280;52164;52.212;-1.010;2023-04-19T00:19:55;101812.86;;;9.30;66.23
62946;BME280;52164;52.212;-1.010;2023-04-19T00:22:21;101804.95;;;9.28;65.97
62946;BME280;52164;52.212;-1.010;2023-04-19T00:24:47;101806.38;;;9.28;66.06
62946;BME280;52164;52.212;-1.010;2023-04-19T00:27:12;101809.94;;;9.28;65.81
62946;BME280;52164;52.212;-1.010;2023-04-19T00:29:37;101808.88;;;9.28;66.05
62946;BME280;52164;52.212;-1.010;2023-04-19T00:32:02;101806.00;;;9.28;66.28
62946;BME280;52164;52.212;-1.010;2023-04-19T00:34:29;101809.92;;;9.27;66.47
62946;BME280;52164;52.212;-1.010;2023-04-19T00:36:55;101806.52;;;9.26;66.21
62946;BME280;52164;52.212;-1.010;2023-04-19T00:39:20;101799.17;;;9.25;66.24
62946;BME280;52164;52.212;-1.010;2023-04-19T00:41:45;101800.76;;;9.24;66.33
62946;BME280;52164;52.212;-1.010;2023-04-19T00:44:11;101801.14;;;9.25;66.61
62946;BME280;52164;52.212;-1.010;2023-04-19T00:46:36;101801.11;;;9.24;66.44
62946;BME280;52164;52.212;-1.010;2023-04-19T00:49:01;101798.80;;;9.25;66.29
62946;BME280;52164;52.212;-1.010;2023-04-19T00:51:27;101800.60;;;9.25;66.57
62946;BME280;52164;52.212;-1.010;2023-04-19T00:53:52;101797.60;;;9.26;66.28
62946;BME280;52164;52.212;-1.010;2023-04-19T00:56:17;101797.80;;;9.27;66.60
62946;BME280;52164;52.212;-1.010;2023-04-19T00:58:46;101794.93;;;9.27;66.59
62946;BME280;52164;52.212;-1.010;2023-04-19T01:01:11;101793.16;;;9.26;66.44
62946;BME280;52164;52.212;-1.010;2023-04-19T01:03:37;101790.29;;;9.26;66.71
62946;BME280;52164;52.212;-1.010;2023-04-19T01:06:02;101790.42;;;9.24;66.67
62946;BME280;52164;52.212;-1.010;2023-04-19T01:08:27;101790.95;;;9.24;67.11
62946;BME280;52164;52.212;-1.010;2023-04-19T01:10:54;101791.80;;;9.23;66.99
62946;BME280;52164;52.212;-1.010;2023-04-19T01:13:20;101791.58;;;9.21;66.94
62946;BME280;52164;52.212;-1.010;2023-04-19T01:15:45;101789.98;;;9.21;67.02
62946;BME280;52164;52.212;-1.010;2023-04-19T01:18:10;101786.94;;;9.20;66.90
62946;BME280;52164;52.212;-1.010;2023-04-19T01:20:36;101784.80;;;9.20;66.98
62946;BME280;52164;52.212;-1.010;2023-04-19T01:23:01;101785.70;;;9.20;67.30
62946;BME280;52164;52.212;-1.010;2023-04-19T01:25:26;101783.05;;;9.22;66.94
62946;BME280;52164;52.212;-1.010;2023-04-19T01:27:52;101778.59;;;9.21;67.32
62946;BME280;52164;52.212;-1.010;2023-04-19T01:30:17;101778.90;;;9.20;67.56
62946;BME280;52164;52.212;-1.010;2023-04-19T01:32:42;101779.08;;;9.19;67.81
62946;BME280;52164;52.212;-1.010;2023-04-19T01:35:08;101772.85;;;9.19;67.47
62946;BME280;52164;52.212;-1.010;2023-04-19T01:37:35;101772.83;;;9.19;67.88
62946;BME280;52164;52.212;-1.010;2023-04-19T01:40:01;101772.98;;;9.18;67.61
62946;BME280;52164;52.212;-1.010;2023-04-19T01:42:26;101770.16;;;9.19;67.71
62946;BME280;52164;52.212;-1.010;2023-04-19T01:44:51;101764.86;;;9.21;67.79
62946;BME280;52164;52.212;-1.010;2023-04-19T01:47:17;101766.16;;;9.23;67.98
62946;BME280;52164;52.212;-1.010;2023-04-19T01:49:42;101764.63;;;9.25;67.85
62946;BME280;52164;52.212;-1.010;2023-04-19T01:52:07;101758.09;;;9.28;67.84
62946;BME280;52164;52.212;-1.010;2023-04-19T01:54:32;101755.85;;;9.30;67.75
62946;BME280;52164;52.212;-1.010;2023-04-19T01:56:58;101754.86;;;9.33;67.74
62946;BME280;52164;52.212;-1.010;2023-04-19T01:59:23;101750.27;;;9.35;67.86
62946;BME280;52164;52.212;-1.010;2023-04-19T02:01:48;101749.63;;;9.39;68.01
62946;BME280;52164;52.212;-1.010;2023-04-19T02:04:14;101746.33;;;9.42;67.73
62946;BME280;52164;52.212;-1.010;2023-04-19T02:06:41;101743.35;;;9.44;67.91
62946;BME280;52164;52.212;-1.010;2023-04-19T02:09:06;101743.77;;;9.46;67.78
62946;BME280;52164;52.212;-1.010;2023-04-19T02:11:32;101742.02;;;9.47;67.92
62946;BME280;52164;52.212;-1.010;2023-04-19T02:13:58;101734.02;;;9.49;67.88
62946;BME280;52164;52.212;-1.010;2023-04-19T02:16:23;101739.56;;;9.49;67.90
62946;BME280;52164;52.212;-1.010;2023-04-19T02:18:48;101739.01;;;9.49;67.81
62946;BME280;52164;52.212;-1.010;2023-04-19T02:21:13;101735.96;;;9.48;67.72
62946;BME280;52164;52.212;-1.010;2023-04-19T02:23:39;101733.41;;;9.45;68.00
62946;BME280;52164;52.212;-1.010;2023-04-19T02:26:04;101733.88;;;9.43;68.30
62946;BME280;52164;52.212;-1.010;2023-04-19T02:28:30;101733.27;;;9.40;68.10
62946;BME280;52164;52.212;-1.010;2023-04-19T02:30:55;101732.86;;;9.37;68.18
62946;BME280;52164;52.212;-1.010;2023-04-19T02:33:21;101727.77;;;9.33;68.06
62946;BME280;52164;52.212;-1.010;2023-04-19T02:35:47;101725.41;;;9.31;68.32
62946;BME280;52164;52.212;-1.010;2023-04-19T02:38:12;101729.78;;;9.28;68.15
62946;BME280;52164;52.212;-1.010;2023-04-19T02:40:37;101725.45;;;9.26;68.38
62946;BME280;52164;52.212;-1.010;2023-04-19T02:43:02;101726.96;;;9.23;68.25
62946;BME280;52164;52.212;-1.010;2023-04-19T02:45:28;101721.56;;;9.21;68.65
62946;BME280;52164;52.212;-1.010;2023-04-19T02:47:53;101720.98;;;9.17;68.81
62946;BME280;52164;52.212;-1.010;2023-04-19T02:50:19;101717.31;;;9.14;68.70
62946;BME280;52164;52.212;-1.010;2023-04-19T02:52:44;101719.77;;;9.13;68.79
62946;BME280;52164;52.212;-1.010;2023-04-19T02:55:09;101719.55;;;9.11;69.05
62946;BME280;52164;52.212;-1.010;2023-04-19T02:57:35;101722.70;;;9.08;68.77
62946;BME280;52164;52.212;-1.010;2023-04-19T03:00:00;101721.91;;;9.06;68.86
62946;BME280;52164;52.212;-1.010;2023-04-19T03:02:25;101720.09;;;9.04;69.18
62946;BME280;52164;52.212;-1.010;2023-04-19T03:04:51;101720.95;;;9.03;69.41
62946;BME280;52164;52.212;-1.010;2023-04-19T03:07:18;101716.77;;;9.00;69.12
62946;BME280;52164;52.212;-1.010;2023-04-19T03:09:44;101714.38;;;8.96;69.60
62946;BME280;52164;52.212;-1.010;2023-04-19T03:12:10;101713.03;;;8.92;69.49
62946;BME280;52164;52.212;-1.010;2023-04-19T03:14:36;101712.02;;;8.88;69.36
62946;BME280;52164;52.212;-1.010;2023-04-19T03:17:01;101708.69;;;8.84;69.77
62946;BME280;52164;52.212;-1.010;2023-04-19T03:19:27;101707.55;;;8.80;70.00
62946;BME280;52164;52.212;-1.010;2023-04-19T03:21:52;101707.63;;;8.76;70.19
62946;BME280;52164;52.212;-1.010;2023-04-19T03:24:17;101713.52;;;8.71;70.37
62946;BME280;52164;52.212;-1.010;2023-04-19T03:26:43;101716.98;;;8.67;70.31
62946;BME280;52164;52.212;-1.010;2023-04-19T03:29:08;101718.16;;;8.64;70.28
62946;BME280;52164;52.212;-1.010;2023-04-19T03:31:33;101717.04;;;8.62;70.37
62946;BME280;52164;52.212;-1.010;2023-04-19T03:33:58;101719.81;;;8.60;70.26
62946;BME280;52164;52.212;-1.010;2023-04-19T03:36:24;101718.88;;;8.58;70.33
62946;BME280;52164;52.212;-1.010;2023-04-19T03:38:51;101720.29;;;8.58;70.32
62946;BME280;52164;52.212;-1.010;2023-04-19T03:41:18;101719.38;;;8.57;70.25
62946;BME280;52164;52.212;-1.010;2023-04-19T03:43:44;101722.92;;;8.56;70.88
62946;BME280;52164;52.212;-1.010;2023-04-19T03:46:10;101723.47;;;8.56;70.80
62946;BME280;52164;52.212;-1.010;2023-04-19T03:48:35;101720.63;;;8.57;70.86
62946;BME280;52164;52.212;-1.010;2023-04-19T03:51:00;101721.87;;;8.57;71.00
62946;BME280;52164;52.212;-1.010;2023-04-19T03:53:25;101719.38;;;8.57;70.74
62946;BME280;52164;52.212;-1.010;2023-04-19T03:55:51;101721.70;;;8.57;70.83
62946;BME280;52164;52.212;-1.010;2023-04-19T03:58:16;101724.38;;;8.57;70.78
62946;BME280;52164;52.212;-1.010;2023-04-19T04:00:42;101725.14;;;8.59;71.28
62946;BME280;52164;52.212;-1.010;2023-04-19T04:03:07;101726.64;;;8.62;71.18
62946;BME280;52164;52.212;-1.010;2023-04-19T04:05:33;101722.58;;;8.63;71.00
62946;BME280;52164;52.212;-1.010;2023-04-19T04:08:01;101719.05;;;8.63;71.03
62946;BME280;52164;52.212;-1.010;2023-04-19T04:10:27;101721.86;;;8.62;70.86
62946;BME280;52164;52.212;-1.010;2023-04-19T04:12:52;101720.91;;;8.60;71.19
62946;BME280;52164;52.212;-1.010;2023-04-19T04:15:17;101722.25;;;8.58;71.33
62946;BME280;52164;52.212;-1.010;2023-04-19T04:17:43;101722.95;;;8.57;71.45
62946;BME280;52164;52.212;-1.010;2023-04-19T04:20:08;101719.15;;;8.55;71.32
62946;BME280;52164;52.212;-1.010;2023-04-19T04:22:38;101718.86;;;8.51;71.43
62946;BME280;52164;52.212;-1.010;2023-04-19T04:25:04;101717.34;;;8.47;71.58
62946;BME280;52164;52.212;-1.010;2023-04-19T04:27:29;101720.94;;;8.43;71.82
62946;BME280;52164;52.212;-1.010;2023-04-19T04:29:55;101719.06;;;8.40;71.56
62946;BME280;52164;52.212;-1.010;2023-04-19T04:32:20;101718.27;;;8.37;71.60
62946;BME280;52164;52.212;-1.010;2023-04-19T04:34:47;101721.16;;;8.33;72.09
62946;BME280;52164;52.212;-1.010;2023-04-19T04:37:12;101718.05;;;8.29;71.86
62946;BME280;52164;52.212;-1.010;2023-04-19T04:39:37;101715.96;;;8.25;72.40
62946;BME280;52164;52.212;-1.010;2023-04-19T04:42:04;101715.00;;;8.22;72.22
62946;BME280;52164;52.212;-1.010;2023-04-19T04:44:33;101715.98;;;8.19;72.21
62946;BME280;52164;52.212;-1.010;2023-04-19T04:46:58;101717.12;;;8.16;72.42
62946;BME280;52164;52.212;-1.010;2023-04-19T04:49:24;101716.67;;;8.12;72.70
62946;BME280;52164;52.212;-1.010;2023-04-19T04:51:49;101721.41;;;8.10;72.67
62946;BME280;52164;52.212;-1.010;2023-04-19T04:54:15;101719.23;;;8.09;73.13
62946;BME280;52164;52.212;-1.010;2023-04-19T04:56:41;101718.30;;;8.07;73.15
62946;BME280;52164;52.212;-1.010;2023-04-19T04:59:06;101721.15;;;8.07;73.03
62946;BME280;52164;52.212;-1.010;2023-04-19T05:01:32;101721.36;;;8.09;73.07
62946;BME280;52164;52.212;-1.010;2023-04-19T05:03:57;101723.20;;;8.10;73.48
62946;BME280;52164;52.212;-1.010;2023-04-19T05:06:22;101724.83;;;8.11;72.91
62946;BME280;52164;52.212;-1.010;2023-04-19T05:08:49;101719.89;;;8.13;72.94
62946;BME280;52164;52.212;-1.010;2023-04-19T05:11:15;101722.40;;;8.14;72.79
62946;BME280;52164;52.212;-1.010;2023-04-19T05:13:42;101722.61;;;8.15;73.15
62946;BME280;52164;52.212;-1.010;2023-04-19T05:16:07;101725.93;;;8.19;72.90
62946;BME280;52164;52.212;-1.010;2023-04-19T05:18:32;101727.45;;;8.22;72.68
62946;BME280;52164;52.212;-1.010;2023-04-19T05:20:58;101725.25;;;8.26;72.63
62946;BME280;52164;52.212;-1.010;2023-04-19T05:23:23;101726.95;;;8.30;72.50
62946;BME280;52164;52.212;-1.010;2023-04-19T05:25:48;101726.86;;;8.33;72.78
62946;BME280;52164;52.212;-1.010;2023-04-19T05:28:14;101730.67;;;8.35;72.73
62946;BME280;52164;52.212;-1.010;2023-04-19T05:30:39;101730.95;;;8.39;72.71
62946;BME280;52164;52.212;-1.010;2023-04-19T05:33:04;101726.84;;;8.44;72.82
62946;BME280;52164;52.212;-1.010;2023-04-19T05:35:30;101721.98;;;8.48;72.47
62946;BME280;52164;52.212;-1.010;2023-04-19T05:37:55;101725.15;;;8.53;72.47
62946;BME280;52164;52.212;-1.010;2023-04-19T05:40:20;101722.23;;;8.57;72.67
62946;BME280;52164;52.212;-1.010;2023-04-19T05:42:47;101729.06;;;8.59;72.35
62946;BME280;52164;52.212;-1.010;2023-04-19T05:45:14;101732.69;;;8.61;72.56
62946;BME280;52164;52.212;-1.010;2023-04-19T05:47:40;101728.66;;;8.64;72.29
62946;BME280;52164;52.212;-1.010;2023-04-19T05:50:05;101733.73;;;8.68;72.35
62946;BME280;52164;52.212;-1.010;2023-04-19T05:52:31;101735.41;;;8.71;72.26
62946;BME280;52164;52.212;-1.010;2023-04-19T05:54:56;101738.16;;;8.73;72.15
62946;BME280;52164;52.212;-1.010;2023-04-19T05:57:22;101738.08;;;8.76;72.00
62946;BME280;52164;52.212;-1.010;2023-04-19T05:59:47;101733.16;;;8.79;71.88
62946;BME280;52164;52.212;-1.010;2023-04-19T06:02:12;101728.46;;;8.84;71.68
62946;BME280;52164;52.212;-1.010;2023-04-19T06:04:38;101733.00;;;8.87;71.68
62946;BME280;52164;52.212;-1.010;2023-04-19T06:07:03;101737.36;;;8.90;71.68
62946;BME280;52164;52.212;-1.010;2023-04-19T06:09:30;101734.23;;;8.93;71.88
62946;BME280;52164;52.212;-1.010;2023-04-19T06:11:55;101735.92;;;8.96;71.67
62946;BME280;52164;52.212;-1.010;2023-04-19T06:14:22;101737.23;;;8.99;71.83
62946;BME280;52164;52.212;-1.010;2023-04-19T06:16:48;101737.71;;;9.03;71.66
62946;BME280;52164;52.212;-1.010;2023-04-19T06:19:13;101740.66;;;9.08;71.69
62946;BME280;52164;52.212;-1.010;2023-04-19T06:21:38;101743.98;;;9.12;71.66
62946;BME280;52164;52.212;-1.010;2023-04-19T06:24:05;101750.68;;;9.16;71.84
62946;BME280;52164;52.212;-1.010;2023-04-19T06:26:31;101749.48;;;9.19;71.41
62946;BME280;52164;52.212;-1.010;2023-04-19T06:28:56;101749.23;;;9.23;71.02
62946;BME280;52164;52.212;-1.010;2023-04-19T06:31:21;101750.21;;;9.26;71.09
62946;BME280;52164;52.212;-1.010;2023-04-19T06:33:47;101750.64;;;9.29;71.19
62946;BME280;52164;52.212;-1.010;2023-04-19T06:36:12;101751.11;;;9.33;71.02
62946;BME280;52164;52.212;-1.010;2023-04-19T06:38:37;101745.27;;;9.35;71.06
62946;BME280;52164;52.212;-1.010;2023-04-19T06:41:03;101745.34;;;9.38;70.98
62946;BME280;52164;52.212;-1.010;2023-04-19T06:43:29;101738.14;;;9.42;70.75
62946;BME280;52164;52.212;-1.010;2023-04-19T06:45:57;101735.03;;;9.46;70.60
62946;BME280;52164;52.212;-1.010;2023-04-19T06:48:23;101737.06;;;9.49;70.68
62946;BME280;52164;52.212;-1.010;2023-04-19T06:50:48;101741.25;;;9.53;70.66
62946;BME280;52164;52.212;-1.010;2023-04-19T06:53:13;101742.92;;;9.63;70.66
62946;BME280;52164;52.212;-1.010;2023-04-19T06:55:39;101738.93;;;9.76;70.18
62946;BME280;52164;52.212;-1.010;2023-04-19T06:58:04;101739.73;;;9.87;70.22
62946;BME280;52164;52.212;-1.010;2023-04-19T07:00:31;101736.45;;;10.00;69.89
62946;BME280;52164;52.212;-1.010;2023-04-19T07:02:57;101737.02;;;10.11;69.52
62946;BME280;52164;52.212;-1.010;2023-04-19T07:05:23;101737.55;;;10.18;69.39
62946;BME280;52164;52.212;-1.010;2023-04-19T07:07:49;101743.48;;;10.29;69.08
62946;BME280;52164;52.212;-1.010;2023-04-19T07:10:15;101750.11;;;10.38;69.20
62946;BME280;52164;52.212;-1.010;2023-04-19T07:12:40;101748.17;;;10.47;68.79
62946;BME280;52164;52.212;-1.010;2023-04-19T07:15:07;101750.39;;;10.60;68.66
62946;BME280;52164;52.212;-1.010;2023-04-19T07:17:33;101753.64;;;10.72;68.50
62946;BME280;52164;52.212;-1.010;2023-04-19T07:19:58;101754.76;;;10.83;68.26
62946;BME280;52164;52.212;-1.010;2023-04-19T07:22:23;101756.14;;;10.91;67.87
62946;BME280;52164;52.212;-1.010;2023-04-19T07:24:49;101754.07;;;10.94;67.62
62946;BME280;52164;52.212;-1.010;2023-04-19T07:27:16;101749.32;;;10.98;67.81
62946;BME280;52164;52.212;-1.010;2023-04-19T07:29:42;101751.31;;;11.00;67.50
62946;BME280;52164;52.212;-1.010;2023-04-19T07:32:07;101752.23;;;11.02;67.26
62946;BME280;52164;52.212;-1.010;2023-04-19T07:34:33;101751.92;;;11.03;67.23
62946;BME280;52164;52.212;-1.010;2023-04-19T07:36:58;101750.90;;;11.07;67.31
62946;BME280;52164;52.212;-1.010;2023-04-19T07:39:23;101754.84;;;11.17;67.21
62946;BME280;52164;52.212;-1.010;2023-04-19T07:41:48;101754.05;;;11.24;66.96
62946;BME280;52164;52.212;-1.010;2023-04-19T07:44:14;101755.45;;;11.32;66.79
62946;BME280;52164;52.212;-1.010;2023-04-19T07:46:41;101755.19;;;11.38;66.62
62946;BME280;52164;52.212;-1.010;2023-04-19T07:49:06;101757.20;;;11.40;66.39
62946;BME280;52164;52.212;-1.010;2023-04-19T07:51:32;101755.48;;;11.45;66.33
62946;BME280;52164;52.212;-1.010;2023-04-19T07:53:57;101755.26;;;11.54;66.23
62946;BME280;52164;52.212;-1.010;2023-04-19T07:56:23;101758.03;;;11.60;65.92
62946;BME280;52164;52.212;-1.010;2023-04-19T07:58:50;101762.58;;;11.64;65.88
62946;BME280;52164;52.212;-1.010;2023-04-19T08:01:15;101763.38;;;11.70;65.77
62946;BME280;52164;52.212;-1.010;2023-04-19T08:03:41;101762.04;;;11.76;65.78
62946;BME280;52164;52.212;-1.010;2023-04-19T08:06:06;101761.71;;;11.78;65.56
62946;BME280;52164;52.212;-1.010;2023-04-19T08:08:33;101762.23;;;11.77;65.76
62946;BME280;52164;52.212;-1.010;2023-04-19T08:11:03;101763.63;;;11.74;65.57
62946;BME280;52164;52.212;-1.010;2023-04-19T08:13:28;101767.06;;;11.77;65.48
62946;BME280;52164;52.212;-1.010;2023-04-19T08:15:54;101764.56;;;11.78;65.25
62946;BME280;52164;52.212;-1.010;2023-04-19T08:18:19;101760.82;;;11.78;65.31
62946;BME280;52164;52.212;-1.010;2023-04-19T08:20:45;101761.17;;;11.78;65.47
62946;BME280;52164;52.212;-1.010;2023-04-19T08:23:10;101760.11;;;11.78;65.43
62946;BME280;52164;52.212;-1.010;2023-04-19T08:25:36;101764.79;;;11.80;65.42
62946;BME280;52164;52.212;-1.010;2023-04-19T08:28:02;101770.40;;;11.85;65.37
62946;BME280;52164;52.212;-1.010;2023-04-19T08:30:27;101767.45;;;11.91;65.40
62946;BME280;52164;52.212;-1.010;2023-04-19T08:32:52;101765.60;;;11.97;65.26
62946;BME280;52164;52.212;-1.010;2023-04-19T08:35:19;101767.06;;;12.00;65.33
62946;BME280;52164;52.212;-1.010;2023-04-19T08:37:44;101770.30;;;12.01;65.29
62946;BME280;52164;52.212;-1.010;2023-04-19T08:40:09;101769.41;;;12.02;65.25
62946;BME280;52164;52.212;-1.010;2023-04-19T08:42:35;101768.04;;;12.05;65.09
62946;BME280;52164;52.212;-1.010;2023-04-19T08:45:01;101767.86;;;12.06;65.05
62946;BME280;52164;52.212;-1.010;2023-04-19T08:47:31;101768.92;;;12.05;65.16
62946;BME280;52164;52.212;-1.010;2023-04-19T08:50:00;101766.98;;;12.06;64.88
62946;BME280;52164;52.212;-1.010;2023-04-19T08:52:26;101768.95;;;12.06;65.08
62946;BME280;52164;52.212;-1.010;2023-04-19T08:54:51;101775.76;;;12.06;65.12
62946;BME280;52164;52.212;-1.010;2023-04-19T08:57:18;101775.73;;;12.06;65.22
62946;BME280;52164;52.212;-1.010;2023-04-19T08:59:43;101772.30;;;12.04;65.42
62946;BME280;52164;52.212;-1.010;2023-04-19T09:02:11;101775.02;;;12.05;65.09
62946;BME280;52164;52.212;-1.010;2023-04-19T09:04:37;101770.95;;;12.09;64.97
62946;BME280;52164;52.212;-1.010;2023-04-19T09:07:03;101766.38;;;12.13;64.98
62946;BME280;52164;52.212;-1.010;2023-04-19T09:09:28;101769.27;;;12.17;65.18
62946;BME280;52164;52.212;-1.010;2023-04-19T09:11:55;101771.14;;;12.22;65.14
62946;BME280;52164;52.212;-1.010;2023-04-19T09:14:24;101774.41;;;12.26;65.01
62946;BME280;52164;52.212;-1.010;2023-04-19T09:16:49;101776.09;;;12.32;64.87
62946;BME280;52164;52.212;-1.010;2023-04-19T09:19:16;101771.20;;;12.41;64.73
62946;BME280;52164;52.212;-1.010;2023-04-19T09:21:42;101769.48;;;12.47;64.67
62946;BME280;52164;52.212;-1.010;2023-04-19T09:24:07;101769.71;;;12.51;64.58
62946;BME280;52164;52.212;-1.010;2023-04-19T09:26:33;101763.17;;;12.59;64.83
62946;BME280;52164;52.212;-1.010;2023-04-19T09:28:59;101769.92;;;12.69;65.08
62946;BME280;52164;52.212;-1.010;2023-04-19T09:31:28;101766.84;;;12.82;64.72
62946;BME280;52164;52.212;-1.010;2023-04-19T09:33:54;101758.39;;;12.97;64.68
62946;BME280;52164;52.212;-1.010;2023-04-19T09:36:30;101753.89;;;13.13;64.36
62946;BME280;52164;52.212;-1.010;2023-04-19T09:38:56;101751.83;;;13.25;63.96
62946;BME280;52164;52.212;-1.010;2023-04-19T09:41:22;101749.11;;;13.38;63.70
62946;BME280;52164;52.212;-1.010;2023-04-19T09:43:47;101743.12;;;13.50;63.58
62946;BME280;52164;52.212;-1.010;2023-04-19T09:46:44;101745.35;;;13.61;63.30
62946;BME280;52164;52.212;-1.010;2023-04-19T09:49:14;101743.08;;;13.71;62.97
62946;BME280;52164;52.212;-1.010;2023-04-19T09:51:42;101742.80;;;13.82;62.76
62946;BME280;52164;52.212;-1.010;2023-04-19T09:54:10;101744.10;;;13.87;62.70
62946;BME280;52164;52.212;-1.010;2023-04-19T09:56:35;101742.13;;;13.91;62.58
62946;BME280;52164;52.212;-1.010;2023-04-19T09:59:02;101738.58;;;13.98;62.43
62946;BME280;52164;52.212;-1.010;2023-04-19T10:01:28;101734.48;;;14.04;62.03
62946;BME280;52164;52.212;-1.010;2023-04-19T10:03:55;101733.27;;;14.14;62.18
62946;BME280;52164;52.212;-1.010;2023-04-19T10:06:21;101735.68;;;14.26;61.99
62946;BME280;52164;52.212;-1.010;2023-04-19T10:08:48;101731.27;;;14.45;61.68
62946;BME280;52164;52.212;-1.010;2023-04-19T10:11:14;101728.46;;;14.63;61.11
62946;BME280;52164;52.212;-1.010;2023-04-19T10:13:40;101727.08;;;14.80;60.82
62946;BME280;52164;52.212;-1.010;2023-04-19T10:16:06;101729.08;;;14.96;60.86
62946;BME280;52164;52.212;-1.010;2023-04-19T10:18:32;101726.20;;;15.10;60.31
62946;BME280;52164;52.212;-1.010;2023-04-19T10:20:58;101728.02;;;15.14;59.91
62946;BME280;52164;52.212;-1.010;2023-04-19T10:23:25;101724.23;;;15.21;59.67
62946;BME280;52164;52.212;-1.010;2023-04-19T10:25:54;101719.39;;;15.27;59.34
62946;BME280;52164;52.212;-1.010;2023-04-19T10:28:21;101717.75;;;15.37;59.26
62946;BME280;52164;52.212;-1.010;2023-04-19T10:30:57;101715.05;;;15.55;58.72
62946;BME280;52164;52.212;-1.010;2023-04-19T10:33:25;101712.31;;;15.72;58.65
62946;BME280;52164;52.212;-1.010;2023-04-19T10:35:54;101706.73;;;15.87;58.35
62946;BME280;52164;52.212;-1.010;2023-04-19T10:38:20;101705.80;;;15.97;57.97
62946;BME280;52164;52.212;-1.010;2023-04-19T10:40:59;101709.50;;;16.20;57.64
62946;BME280;52164;52.212;-1.010;2023-04-19T10:43:26;101707.99;;;16.33;57.11
62946;BME280;52164;52.212;-1.010;2023-04-19T10:45:52;101703.44;;;16.44;56.90
62946;BME280;52164;52.212;-1.010;2023-04-19T10:48:33;101700.33;;;16.52;56.80
62946;BME280;52164;52.212;-1.010;2023-04-19T10:51:04;101702.10;;;16.57;56.77
62946;BME280;52164;52.212;-1.010;2023-04-19T10:54:37;101694.67;;;16.62;56.73
62946;BME280;52164;52.212;-1.010;2023-04-19T10:56:16;101692.67;;;16.66;56.65
62946;BME280;52164;52.212;-1.010;2023-04-19T10:59:13;101690.66;;;16.71;56.30
62946;BME280;52164;52.212;-1.010;2023-04-19T11:01:40;101687.16;;;16.82;56.01
62946;BME280;52164;52.212;-1.010;2023-04-19T11:04:09;101684.80;;;16.88;55.64
62946;BME280;52164;52.212;-1.010;2023-04-19T11:06:35;101684.01;;;16.98;55.66
62946;BME280;52164;52.212;-1.010;2023-04-19T11:09:01;101687.67;;;17.12;55.88
62946;BME280;52164;52.212;-1.010;2023-04-19T11:11:32;101684.52;;;17.23;55.28
62946;BME280;52164;52.212;-1.010;2023-04-19T11:14:02;101685.70;;;17.34;54.97
62946;BME280;52164;52.212;-1.010;2023-04-19T11:16:28;101684.24;;;17.34;54.72
62946;BME280;52164;52.212;-1.010;2023-04-19T11:18:54;101677.95;;;17.32;54.46
62946;BME280;52164;52.212;-1.010;2023-04-19T11:21:20;101678.83;;;17.34;54.02
62946;BME280;52164;52.212;-1.010;2023-04-19T11:23:45;101674.45;;;17.38;53.77
62946;BME280;52164;52.212;-1.010;2023-04-19T11:26:13;101674.06;;;17.42;53.86
62946;BME280;52164;52.212;-1.010;2023-04-19T11:28:38;101668.74;;;17.50;53.99
62946;BME280;52164;52.212;-1.010;2023-04-19T11:31:04;101668.50;;;17.57;53.85
62946;BME280;52164;52.212;-1.010;2023-04-19T11:33:33;101664.71;;;17.57;53.78
62946;BME280;52164;52.212;-1.010;2023-04-19T11:35:59;101665.44;;;17.56;54.01
62946;BME280;52164;52.212;-1.010;2023-04-19T11:38:26;101664.33;;;17.57;53.87
62946;BME280;52164;52.212;-1.010;2023-04-19T11:40:59;101662.29;;;17.63;53.76
62946;BME280;52164;52.212;-1.010;2023-04-19T11:43:33;101662.80;;;17.66;53.80
62946;BME280;52164;52.212;-1.010;2023-04-19T11:46:07;101661.70;;;17.67;53.74
62946;BME280;52164;52.212;-1.010;2023-04-19T11:48:33;101659.05;;;17.63;53.38
62946;BME280;52164;52.212;-1.010;2023-04-19T11:50:58;101655.27;;;17.62;53.20
62946;BME280;52164;52.212;-1.010;2023-04-19T11:53:25;101655.28;;;17.61;53.24
62946;BME280;52164;52.212;-1.010;2023-04-19T11:58:25;101656.01;;;17.60;53.08
62946;BME280;52164;52.212;-1.010;2023-04-19T12:00:53;101652.42;;;17.57;53.14
62946;BME280;52164;52.212;-1.010;2023-04-19T12:03:20;101649.31;;;17.61;53.74
62946;BME280;52164;52.212;-1.010;2023-04-19T12:05:54;101653.40;;;17.51;53.81
62946;BME280;52164;52.212;-1.010;2023-04-19T12:08:28;101653.30;;;17.43;53.75
62946;BME280;52164;52.212;-1.010;2023-04-19T12:10:55;101652.90;;;17.46;53.46
62946;BME280;52164;52.212;-1.010;2023-04-19T12:13:21;101647.66;;;17.49;53.54
62946;BME280;52164;52.212;-1.010;2023-04-19T12:15:50;101645.70;;;17.44;53.40
62946;BME280;52164;52.212;-1.010;2023-04-19T12:18:16;101648.20;;;17.30;53.41
62946;BME280;52164;52.212;-1.010;2023-04-19T12:20:43;101645.83;;;17.14;53.42
62946;BME280;52164;52.212;-1.010;2023-04-19T12:23:08;101647.40;;;16.99;53.64
62946;BME280;52164;52.212;-1.010;2023-04-19T12:25:37;101645.70;;;16.84;53.81
62946;BME280;52164;52.212;-1.010;2023-04-19T12:28:03;101645.59;;;16.72;53.94
62946;BME280;52164;52.212;-1.010;2023-04-19T12:30:28;101648.55;;;16.62;54.22
62946;BME280;52164;52.212;-1.010;2023-04-19T12:32:54;101646.31;;;16.45;54.72
62946;BME280;52164;52.212;-1.010;2023-04-19T12:35:20;101647.12;;;16.30;55.06
62946;BME280;52164;52.212;-1.010;2023-04-19T12:37:46;101646.66;;;16.17;55.04
62946;BME280;52164;52.212;-1.010;2023-04-19T12:40:11;101650.46;;;16.11;55.09
62946;BME280;52164;52.212;-1.010;2023-04-19T12:42:37;101644.75;;;16.01;55.20